Standish, Michigan
Current Conditions -  °F | °C
As of 10:11 PM on Wednesday 22 Oct 2014 (Local Time) from KIKW Reporting Station
Clear Clear  
Wind Chill:   Ceiling: Unl
Heat Index:   Visibility: 10mi
Dew Point:   Wind: 0mph
Humidity: 99%   Direction: NA
Pressure: 30.31"   Gusts: NA
Location:  43.98°N, 83.96°W
Report Text: KIKW 230211Z AUTO 00000KT 10SM CLR 01/01 A3031 RMK AO2 T00080006
Loading
Personal Weather Stations






























Interactive Weather Map
Tropical Storm Tracking
New forecast layout! Learn more

10-Day Weather Forecast

Advertisements
Track Severe Weather on mobile